sensor_id;sensor_type;location;lat;lon;timestamp;pressure;altitude;pressure_sealevel;temperature;humidity
39954;BME280;25631;51.516;-0.470;2023-04-24T00:02:30;100337.19;;;8.20;41.64
39954;BME280;25631;51.516;-0.470;2023-04-24T00:05:08;100336.93;;;7.82;41.67
39954;BME280;25631;51.516;-0.470;2023-04-24T00:07:45;100345.49;;;7.91;41.74
39954;BME280;25631;51.516;-0.470;2023-04-24T00:10:21;100346.83;;;8.03;41.68
39954;BME280;25631;51.516;-0.470;2023-04-24T00:12:58;100349.90;;;8.18;41.73
39954;BME280;25631;51.516;-0.470;2023-04-24T00:15:34;100350.25;;;8.05;41.89
39954;BME280;25631;51.516;-0.470;2023-04-24T00:18:11;100349.97;;;8.03;41.87
39954;BME280;25631;51.516;-0.470;2023-04-24T00:20:48;100349.09;;;7.94;41.89
39954;BME280;25631;51.516;-0.470;2023-04-24T00:23:24;100348.72;;;7.93;42.11
39954;BME280;25631;51.516;-0.470;2023-04-24T00:26:01;100352.62;;;7.95;42.01
39954;BME280;25631;51.516;-0.470;2023-04-24T00:28:37;100353.18;;;8.04;41.91
39954;BME280;25631;51.516;-0.470;2023-04-24T00:31:14;100356.93;;;8.25;41.88
39954;BME280;25631;51.516;-0.470;2023-04-24T00:33:50;100360.33;;;8.27;41.76
39954;BME280;25631;51.516;-0.470;2023-04-24T00:36:27;100354.14;;;8.00;41.76
39954;BME280;25631;51.516;-0.470;2023-04-24T00:39:03;100354.37;;;8.23;41.79
39954;BME280;25631;51.516;-0.470;2023-04-24T00:41:40;100358.72;;;8.12;41.81
39954;BME280;25631;51.516;-0.470;2023-04-24T00:44:17;100362.82;;;8.20;41.79
39954;BME280;25631;51.516;-0.470;2023-04-24T00:46:55;100369.06;;;8.17;41.76
39954;BME280;25631;51.516;-0.470;2023-04-24T00:49:37;100381.75;;;8.34;41.74
39954;BME280;25631;51.516;-0.470;2023-04-24T00:52:13;100382.39;;;7.99;41.66
39954;BME280;25631;51.516;-0.470;2023-04-24T00:54:50;100386.29;;;8.28;41.67
39954;BME280;25631;51.516;-0.470;2023-04-24T00:57:27;100383.29;;;8.26;41.67
39954;BME280;25631;51.516;-0.470;2023-04-24T01:00:05;100384.04;;;8.23;41.67
39954;BME280;25631;51.516;-0.470;2023-04-24T01:02:43;100386.19;;;7.99;41.64
39954;BME280;25631;51.516;-0.470;2023-04-24T01:05:20;100388.06;;;8.19;41.59
39954;BME280;25631;51.516;-0.470;2023-04-24T01:07:57;100388.10;;;8.33;41.52
39954;BME280;25631;51.516;-0.470;2023-04-24T01:10:36;100386.18;;;8.42;41.42
39954;BME280;25631;51.516;-0.470;2023-04-24T01:13:14;100389.68;;;8.51;41.43
39954;BME280;25631;51.516;-0.470;2023-04-24T01:15:51;100391.02;;;8.38;41.48
39954;BME280;25631;51.516;-0.470;2023-04-24T01:18:28;100391.47;;;8.23;41.33
39954;BME280;25631;51.516;-0.470;2023-04-24T01:21:05;100390.29;;;8.52;41.27
39954;BME280;25631;51.516;-0.470;2023-04-24T01:23:43;100389.64;;;8.37;41.26
39954;BME280;25631;51.516;-0.470;2023-04-24T01:26:20;100389.22;;;8.29;41.33
39954;BME280;25631;51.516;-0.470;2023-04-24T01:28:56;100393.78;;;8.14;41.29
39954;BME280;25631;51.516;-0.470;2023-04-24T01:31:33;100396.37;;;8.14;41.32
39954;BME280;25631;51.516;-0.470;2023-04-24T01:34:15;100396.86;;;8.10;41.15
39954;BME280;25631;51.516;-0.470;2023-04-24T01:36:52;100393.23;;;8.08;41.04
39954;BME280;25631;51.516;-0.470;2023-04-24T01:39:29;100392.46;;;8.12;41.05
39954;BME280;25631;51.516;-0.470;2023-04-24T01:42:05;100394.94;;;8.18;41.08
39954;BME280;25631;51.516;-0.470;2023-04-24T01:44:43;100396.09;;;8.14;41.22
39954;BME280;25631;51.516;-0.470;2023-04-24T01:47:21;100402.82;;;7.90;41.13
39954;BME280;25631;51.516;-0.470;2023-04-24T01:49:57;100408.37;;;8.00;41.22
39954;BME280;25631;51.516;-0.470;2023-04-24T01:52:34;100412.24;;;7.83;41.29
39954;BME280;25631;51.516;-0.470;2023-04-24T01:55:11;100410.76;;;7.80;41.27
39954;BME280;25631;51.516;-0.470;2023-04-24T01:57:47;100407.78;;;7.76;41.33
39954;BME280;25631;51.516;-0.470;2023-04-24T02:00:24;100409.22;;;7.79;41.31
39954;BME280;25631;51.516;-0.470;2023-04-24T02:03:01;100407.42;;;7.58;41.35
39954;BME280;25631;51.516;-0.470;2023-04-24T02:05:37;100405.82;;;7.57;41.29
39954;BME280;25631;51.516;-0.470;2023-04-24T02:08:14;100407.19;;;7.71;41.29
39954;BME280;25631;51.516;-0.470;2023-04-24T02:10:51;100409.86;;;7.67;41.37
39954;BME280;25631;51.516;-0.470;2023-04-24T02:13:27;100417.88;;;7.49;41.38
39954;BME280;25631;51.516;-0.470;2023-04-24T02:16:04;100423.49;;;7.48;41.32
39954;BME280;25631;51.516;-0.470;2023-04-24T02:18:40;100430.31;;;7.49;41.23
39954;BME280;25631;51.516;-0.470;2023-04-24T02:21:17;100431.16;;;7.56;41.23
39954;BME280;25631;51.516;-0.470;2023-04-24T02:23:53;100430.95;;;7.42;41.31
39954;BME280;25631;51.516;-0.470;2023-04-24T02:26:30;100436.72;;;7.41;41.30
39954;BME280;25631;51.516;-0.470;2023-04-24T02:29:06;100442.44;;;7.79;41.24
39954;BME280;25631;51.516;-0.470;2023-04-24T02:31:42;100448.48;;;7.70;41.27
39954;BME280;25631;51.516;-0.470;2023-04-24T02:34:19;100446.59;;;7.36;41.29
39954;BME280;25631;51.516;-0.470;2023-04-24T02:36:55;100448.18;;;7.59;41.28
39954;BME280;25631;51.516;-0.470;2023-04-24T02:39:32;100448.59;;;7.53;41.50
39954;BME280;25631;51.516;-0.470;2023-04-24T02:42:08;100451.60;;;7.40;41.64
39954;BME280;25631;51.516;-0.470;2023-04-24T02:44:44;100460.85;;;7.25;41.75
39954;BME280;25631;51.516;-0.470;2023-04-24T02:47:21;100466.81;;;7.15;41.95
39954;BME280;25631;51.516;-0.470;2023-04-24T02:49:57;100464.37;;;7.20;41.90
39954;BME280;25631;51.516;-0.470;2023-04-24T02:52:34;100465.32;;;6.71;41.89
39954;BME280;25631;51.516;-0.470;2023-04-24T02:55:11;100466.52;;;7.27;41.82
39954;BME280;25631;51.516;-0.470;2023-04-24T02:57:47;100472.43;;;7.40;41.81
39954;BME280;25631;51.516;-0.470;2023-04-24T03:00:23;100471.65;;;7.22;41.91
39954;BME280;25631;51.516;-0.470;2023-04-24T03:03:00;100472.16;;;6.84;42.03
39954;BME280;25631;51.516;-0.470;2023-04-24T03:05:36;100473.91;;;7.03;42.07
39954;BME280;25631;51.516;-0.470;2023-04-24T03:08:13;100481.90;;;7.21;41.96
39954;BME280;25631;51.516;-0.470;2023-04-24T03:10:49;100487.59;;;6.99;41.96
39954;BME280;25631;51.516;-0.470;2023-04-24T03:13:26;100492.25;;;7.06;41.93
39954;BME280;25631;51.516;-0.470;2023-04-24T03:16:02;100498.77;;;7.35;41.97
39954;BME280;25631;51.516;-0.470;2023-04-24T03:18:39;100500.36;;;7.57;41.91
39954;BME280;25631;51.516;-0.470;2023-04-24T03:21:15;100497.91;;;7.10;41.95
39954;BME280;25631;51.516;-0.470;2023-04-24T03:23:52;100497.47;;;7.24;41.95
39954;BME280;25631;51.516;-0.470;2023-04-24T03:26:28;100499.82;;;7.02;42.25
39954;BME280;25631;51.516;-0.470;2023-04-24T03:29:04;100498.08;;;7.39;42.12
39954;BME280;25631;51.516;-0.470;2023-04-24T03:31:41;100497.84;;;7.12;41.93
39954;BME280;25631;51.516;-0.470;2023-04-24T03:34:17;100502.65;;;6.89;41.93
39954;BME280;25631;51.516;-0.470;2023-04-24T03:36:54;100503.98;;;7.63;41.75
39954;BME280;25631;51.516;-0.470;2023-04-24T03:39:30;100500.92;;;7.44;41.76
39954;BME280;25631;51.516;-0.470;2023-04-24T03:42:07;100501.63;;;7.01;41.68
39954;BME280;25631;51.516;-0.470;2023-04-24T03:44:43;100507.71;;;7.79;41.72
39954;BME280;25631;51.516;-0.470;2023-04-24T03:47:20;100509.18;;;7.33;41.66
39954;BME280;25631;51.516;-0.470;2023-04-24T03:49:56;100515.56;;;7.36;41.59
39954;BME280;25631;51.516;-0.470;2023-04-24T03:52:33;100518.38;;;7.35;41.60
39954;BME280;25631;51.516;-0.470;2023-04-24T03:55:10;100525.18;;;7.11;41.70
39954;BME280;25631;51.516;-0.470;2023-04-24T03:57:46;100526.49;;;7.54;41.64
39954;BME280;25631;51.516;-0.470;2023-04-24T04:00:23;100528.43;;;7.24;41.56
39954;BME280;25631;51.516;-0.470;2023-04-24T04:02:59;100530.13;;;7.12;41.67
39954;BME280;25631;51.516;-0.470;2023-04-24T04:05:35;100529.15;;;7.11;41.72
39954;BME280;25631;51.516;-0.470;2023-04-24T04:08:12;100536.41;;;7.14;41.90
39954;BME280;25631;51.516;-0.470;2023-04-24T04:10:48;100541.89;;;7.10;41.86
39954;BME280;25631;51.516;-0.470;2023-04-24T04:13:25;100546.69;;;7.12;42.06
39954;BME280;25631;51.516;-0.470;2023-04-24T04:16:01;100547.61;;;7.23;42.24
39954;BME280;25631;51.516;-0.470;2023-04-24T04:18:38;100550.92;;;6.96;42.14
39954;BME280;25631;51.516;-0.470;2023-04-24T04:21:14;100555.58;;;7.05;41.98
39954;BME280;25631;51.516;-0.470;2023-04-24T04:23:50;100561.58;;;7.22;41.94
39954;BME280;25631;51.516;-0.470;2023-04-24T04:26:27;100565.38;;;7.08;42.03
39954;BME280;25631;51.516;-0.470;2023-04-24T04:29:04;100565.03;;;7.07;42.10
39954;BME280;25631;51.516;-0.470;2023-04-24T04:31:40;100568.03;;;7.56;42.01
39954;BME280;25631;51.516;-0.470;2023-04-24T04:34:16;100569.97;;;7.22;41.86
39954;BME280;25631;51.516;-0.470;2023-04-24T04:36:53;100574.50;;;7.18;41.73
39954;BME280;25631;51.516;-0.470;2023-04-24T04:39:30;100573.92;;;7.41;41.70
39954;BME280;25631;51.516;-0.470;2023-04-24T04:42:06;100577.06;;;7.01;41.77
39954;BME280;25631;51.516;-0.470;2023-04-24T04:44:43;100577.99;;;7.50;41.78
39954;BME280;25631;51.516;-0.470;2023-04-24T04:47:21;100580.09;;;7.12;41.70
39954;BME280;25631;51.516;-0.470;2023-04-24T04:49:58;100580.71;;;7.33;41.72
39954;BME280;25631;51.516;-0.470;2023-04-24T04:52:34;100585.51;;;7.42;41.66
39954;BME280;25631;51.516;-0.470;2023-04-24T04:55:11;100590.24;;;7.33;41.70
39954;BME280;25631;51.516;-0.470;2023-04-24T04:57:47;100597.09;;;7.26;41.79
39954;BME280;25631;51.516;-0.470;2023-04-24T05:00:24;100602.68;;;7.35;41.76
39954;BME280;25631;51.516;-0.470;2023-04-24T05:03:01;100601.55;;;7.29;41.73
39954;BME280;25631;51.516;-0.470;2023-04-24T05:05:37;100605.57;;;7.27;41.70
39954;BME280;25631;51.516;-0.470;2023-04-24T05:08:14;100606.42;;;7.47;41.83
39954;BME280;25631;51.516;-0.470;2023-04-24T05:10:50;100612.50;;;7.26;41.77
39954;BME280;25631;51.516;-0.470;2023-04-24T05:13:27;100616.68;;;7.60;41.77
39954;BME280;25631;51.516;-0.470;2023-04-24T05:16:04;100623.41;;;7.58;41.73
39954;BME280;25631;51.516;-0.470;2023-04-24T05:18:40;100625.57;;;7.60;41.67
39954;BME280;25631;51.516;-0.470;2023-04-24T05:21:17;100628.80;;;7.77;41.54
39954;BME280;25631;51.516;-0.470;2023-04-24T05:23:53;100629.89;;;7.59;41.56
39954;BME280;25631;51.516;-0.470;2023-04-24T05:26:30;100630.55;;;7.77;41.49
39954;BME280;25631;51.516;-0.470;2023-04-24T05:29:07;100626.91;;;7.87;41.50
39954;BME280;25631;51.516;-0.470;2023-04-24T05:31:43;100630.22;;;7.96;41.49
39954;BME280;25631;51.516;-0.470;2023-04-24T05:34:19;100629.64;;;7.73;41.41
39954;BME280;25631;51.516;-0.470;2023-04-24T05:36:56;100633.22;;;8.26;41.33
39954;BME280;25631;51.516;-0.470;2023-04-24T05:39:33;100635.79;;;8.17;41.23
39954;BME280;25631;51.516;-0.470;2023-04-24T05:42:10;100636.04;;;7.83;41.02
39954;BME280;25631;51.516;-0.470;2023-04-24T05:44:46;100638.35;;;8.08;40.90
39954;BME280;25631;51.516;-0.470;2023-04-24T05:47:23;100640.03;;;8.03;40.72
39954;BME280;25631;51.516;-0.470;2023-04-24T05:50:00;100642.27;;;7.83;40.55
39954;BME280;25631;51.516;-0.470;2023-04-24T05:52:36;100639.04;;;7.89;40.40
39954;BME280;25631;51.516;-0.470;2023-04-24T05:55:13;100642.04;;;7.73;40.49
39954;BME280;25631;51.516;-0.470;2023-04-24T05:57:50;100646.19;;;7.95;40.57
39954;BME280;25631;51.516;-0.470;2023-04-24T06:00:26;100645.38;;;7.89;40.60
39954;BME280;25631;51.516;-0.470;2023-04-24T06:03:03;100653.08;;;7.85;40.49
39954;BME280;25631;51.516;-0.470;2023-04-24T06:05:39;100659.67;;;7.77;39.94
39954;BME280;25631;51.516;-0.470;2023-04-24T06:08:16;100661.09;;;7.85;39.86
39954;BME280;25631;51.516;-0.470;2023-04-24T06:10:52;100662.19;;;7.90;39.82
39954;BME280;25631;51.516;-0.470;2023-04-24T06:13:29;100666.07;;;7.58;38.63
39954;BME280;25631;51.516;-0.470;2023-04-24T06:16:05;100671.79;;;7.54;38.53
39954;BME280;25631;51.516;-0.470;2023-04-24T06:18:42;100672.30;;;7.41;38.31
39954;BME280;25631;51.516;-0.470;2023-04-24T06:21:18;100663.88;;;7.39;38.35
39954;BME280;25631;51.516;-0.470;2023-04-24T06:23:54;100670.15;;;7.25;38.36
39954;BME280;25631;51.516;-0.470;2023-04-24T06:26:31;100676.17;;;7.61;38.43
39954;BME280;25631;51.516;-0.470;2023-04-24T06:29:08;100672.71;;;7.76;38.53
39954;BME280;25631;51.516;-0.470;2023-04-24T06:31:44;100673.92;;;7.73;38.51
39954;BME280;25631;51.516;-0.470;2023-04-24T06:34:21;100675.42;;;7.36;38.64
39954;BME280;25631;51.516;-0.470;2023-04-24T06:36:57;100676.40;;;7.45;38.54
39954;BME280;25631;51.516;-0.470;2023-04-24T06:39:33;100671.21;;;7.49;38.67
39954;BME280;25631;51.516;-0.470;2023-04-24T06:42:11;100674.90;;;7.71;38.73
39954;BME280;25631;51.516;-0.470;2023-04-24T06:44:48;100677.03;;;7.78;38.59
39954;BME280;25631;51.516;-0.470;2023-04-24T06:47:24;100678.12;;;7.67;38.34
39954;BME280;25631;51.516;-0.470;2023-04-24T06:50:01;100675.95;;;7.47;38.26
39954;BME280;25631;51.516;-0.470;2023-04-24T06:52:38;100675.39;;;7.59;38.00
39954;BME280;25631;51.516;-0.470;2023-04-24T06:55:14;100680.57;;;7.41;37.83
39954;BME280;25631;51.516;-0.470;2023-04-24T06:57:51;100685.13;;;7.52;37.64
39954;BME280;25631;51.516;-0.470;2023-04-24T07:00:27;100681.49;;;7.76;37.62
39954;BME280;25631;51.516;-0.470;2023-04-24T07:03:04;100684.42;;;7.85;37.65
39954;BME280;25631;51.516;-0.470;2023-04-24T07:05:40;100678.41;;;7.81;37.45
39954;BME280;25631;51.516;-0.470;2023-04-24T07:08:17;100676.92;;;7.84;37.25
39954;BME280;25631;51.516;-0.470;2023-04-24T07:10:53;100682.71;;;7.73;37.02
39954;BME280;25631;51.516;-0.470;2023-04-24T07:13:30;100684.68;;;7.70;37.01
39954;BME280;25631;51.516;-0.470;2023-04-24T07:16:06;100688.10;;;7.85;36.97
39954;BME280;25631;51.516;-0.470;2023-04-24T07:18:43;100685.88;;;7.91;36.80
39954;BME280;25631;51.516;-0.470;2023-04-24T07:21:20;100688.24;;;8.01;36.69
39954;BME280;25631;51.516;-0.470;2023-04-24T07:23:56;100697.16;;;8.00;36.61
39954;BME280;25631;51.516;-0.470;2023-04-24T07:26:32;100705.18;;;7.95;36.35
39954;BME280;25631;51.516;-0.470;2023-04-24T07:29:09;100707.60;;;8.12;36.06
39954;BME280;25631;51.516;-0.470;2023-04-24T07:31:45;100712.85;;;7.98;35.92
39954;BME280;25631;51.516;-0.470;2023-04-24T07:34:22;100718.29;;;7.84;35.82
39954;BME280;25631;51.516;-0.470;2023-04-24T07:36:59;100717.11;;;8.23;34.86
39954;BME280;25631;51.516;-0.470;2023-04-24T07:39:35;100723.48;;;8.24;34.29
39954;BME280;25631;51.516;-0.470;2023-04-24T07:42:16;100730.13;;;8.12;34.06
39954;BME280;25631;51.516;-0.470;2023-04-24T07:44:53;100730.74;;;8.23;34.59
39954;BME280;25631;51.516;-0.470;2023-04-24T07:47:29;100730.37;;;8.30;34.92
39954;BME280;25631;51.516;-0.470;2023-04-24T07:50:06;100734.62;;;8.54;34.58
39954;BME280;25631;51.516;-0.470;2023-04-24T07:52:43;100726.29;;;8.59;34.44
39954;BME280;25631;51.516;-0.470;2023-04-24T07:55:19;100719.57;;;8.76;34.41
39954;BME280;25631;51.516;-0.470;2023-04-24T07:57:56;100719.97;;;8.47;34.38
39954;BME280;25631;51.516;-0.470;2023-04-24T08:00:32;100718.59;;;7.79;34.48
39954;BME280;25631;51.516;-0.470;2023-04-24T08:03:09;100721.29;;;8.91;34.13
39954;BME280;25631;51.516;-0.470;2023-04-24T08:05:45;100725.50;;;8.86;34.16
39954;BME280;25631;51.516;-0.470;2023-04-24T08:08:23;100730.49;;;9.05;34.01
39954;BME280;25631;51.516;-0.470;2023-04-24T08:10:59;100728.38;;;8.77;33.33
39954;BME280;25631;51.516;-0.470;2023-04-24T08:13:36;100730.19;;;8.66;33.52
39954;BME280;25631;51.516;-0.470;2023-04-24T08:16:12;100729.96;;;9.01;33.59
39954;BME280;25631;51.516;-0.470;2023-04-24T08:18:49;100733.40;;;9.09;33.50
39954;BME280;25631;51.516;-0.470;2023-04-24T08:21:25;100733.84;;;8.88;33.76
39954;BME280;25631;51.516;-0.470;2023-04-24T08:24:02;100735.32;;;9.02;33.59
39954;BME280;25631;51.516;-0.470;2023-04-24T08:26:38;100734.27;;;8.90;32.86
39954;BME280;25631;51.516;-0.470;2023-04-24T08:29:15;100736.61;;;8.80;32.61
39954;BME280;25631;51.516;-0.470;2023-04-24T08:31:52;100738.27;;;9.07;32.63
39954;BME280;25631;51.516;-0.470;2023-04-24T08:34:28;100742.01;;;8.90;33.07
39954;BME280;25631;51.516;-0.470;2023-04-24T08:37:05;100740.69;;;8.88;33.17
39954;BME280;25631;51.516;-0.470;2023-04-24T08:39:41;100745.63;;;9.06;33.04
39954;BME280;25631;51.516;-0.470;2023-04-24T08:42:18;100749.20;;;9.13;33.13
39954;BME280;25631;51.516;-0.470;2023-04-24T08:44:55;100754.14;;;9.50;33.02
39954;BME280;25631;51.516;-0.470;2023-04-24T08:47:35;100756.86;;;9.47;32.72
39954;BME280;25631;51.516;-0.470;2023-04-24T08:50:17;100755.94;;;9.58;32.34
39954;BME280;25631;51.516;-0.470;2023-04-24T08:53:00;100754.12;;;9.63;32.15
39954;BME280;25631;51.516;-0.470;2023-04-24T08:55:38;100754.32;;;9.36;32.03
39954;BME280;25631;51.516;-0.470;2023-04-24T08:58:16;100753.61;;;9.79;32.37
39954;BME280;25631;51.516;-0.470;2023-04-24T09:00:54;100759.00;;;9.85;32.41
39954;BME280;25631;51.516;-0.470;2023-04-24T09:03:31;100759.47;;;9.61;32.35
39954;BME280;25631;51.516;-0.470;2023-04-24T09:06:09;100760.07;;;9.39;32.33
39954;BME280;25631;51.516;-0.470;2023-04-24T09:08:49;100764.60;;;9.94;32.34
39954;BME280;25631;51.516;-0.470;2023-04-24T09:11:27;100764.21;;;9.94;32.23
39954;BME280;25631;51.516;-0.470;2023-04-24T09:14:04;100765.53;;;10.08;31.78
39954;BME280;25631;51.516;-0.470;2023-04-24T09:16:41;100764.24;;;9.66;32.42
39954;BME280;25631;51.516;-0.470;2023-04-24T09:19:18;100763.05;;;9.49;32.37
39954;BME280;25631;51.516;-0.470;2023-04-24T09:21:54;100760.79;;;9.75;32.24
39954;BME280;25631;51.516;-0.470;2023-04-24T09:24:31;100769.32;;;9.96;32.21
39954;BME280;25631;51.516;-0.470;2023-04-24T09:27:07;100772.66;;;10.21;31.59
39954;BME280;25631;51.516;-0.470;2023-04-24T09:29:54;100775.26;;;9.77;31.35
39954;BME280;25631;51.516;-0.470;2023-04-24T09:32:30;100777.81;;;9.96;31.73
39954;BME280;25631;51.516;-0.470;2023-04-24T09:35:10;100781.63;;;10.02;31.77
39954;BME280;25631;51.516;-0.470;2023-04-24T09:37:47;100784.09;;;9.71;31.95
39954;BME280;25631;51.516;-0.470;2023-04-24T09:40:24;100784.21;;;9.93;31.46
39954;BME280;25631;51.516;-0.470;2023-04-24T09:43:01;100786.13;;;9.95;31.59
39954;BME280;25631;51.516;-0.470;2023-04-24T09:45:39;100787.63;;;10.10;31.99
39954;BME280;25631;51.516;-0.470;2023-04-24T09:48:29;100786.14;;;9.69;32.13
39954;BME280;25631;51.516;-0.470;2023-04-24T09:51:06;100786.99;;;9.69;32.14
39954;BME280;25631;51.516;-0.470;2023-04-24T09:53:46;100792.29;;;9.83;31.97
39954;BME280;25631;51.516;-0.470;2023-04-24T09:56:25;100794.76;;;9.71;32.07
39954;BME280;25631;51.516;-0.470;2023-04-24T09:59:05;100800.12;;;10.01;32.09
39954;BME280;25631;51.516;-0.470;2023-04-24T10:01:43;100801.86;;;10.19;32.13
39954;BME280;25631;51.516;-0.470;2023-04-24T10:04:21;100803.13;;;10.16;32.14
39954;BME280;25631;51.516;-0.470;2023-04-24T10:06:58;100810.93;;;10.40;32.12
39954;BME280;25631;51.516;-0.470;2023-04-24T10:09:34;100811.13;;;10.49;31.45
39954;BME280;25631;51.516;-0.470;2023-04-24T10:12:11;100811.22;;;10.66;31.42
39954;BME280;25631;51.516;-0.470;2023-04-24T10:14:49;100805.10;;;10.40;31.54
39954;BME280;25631;51.516;-0.470;2023-04-24T10:17:26;100803.63;;;10.53;31.75
39954;BME280;25631;51.516;-0.470;2023-04-24T10:20:06;100796.99;;;10.52;31.39
39954;BME280;25631;51.516;-0.470;2023-04-24T10:22:43;100796.59;;;10.60;31.40
39954;BME280;25631;51.516;-0.470;2023-04-24T10:25:23;100795.47;;;10.61;31.60
39954;BME280;25631;51.516;-0.470;2023-04-24T10:28:00;100798.34;;;10.50;31.67
39954;BME280;25631;51.516;-0.470;2023-04-24T10:30:44;100807.19;;;10.57;31.47
39954;BME280;25631;51.516;-0.470;2023-04-24T10:33:22;100814.93;;;10.85;31.32
39954;BME280;25631;51.516;-0.470;2023-04-24T10:36:04;100817.16;;;10.72;31.52
39954;BME280;25631;51.516;-0.470;2023-04-24T10:38:43;100816.49;;;11.28;31.08
39954;BME280;25631;51.516;-0.470;2023-04-24T10:41:25;100817.22;;;11.36;31.01
39954;BME280;25631;51.516;-0.470;2023-04-24T10:44:05;100822.40;;;11.05;30.90
39954;BME280;25631;51.516;-0.470;2023-04-24T10:46:53;100819.58;;;11.13;30.84
39954;BME280;25631;51.516;-0.470;2023-04-24T10:49:31;100820.24;;;10.88;30.52
39954;BME280;25631;51.516;-0.470;2023-04-24T10:52:09;100819.33;;;11.06;30.73
39954;BME280;25631;51.516;-0.470;2023-04-24T10:54:46;100819.20;;;11.27;30.93
39954;BME280;25631;51.516;-0.470;2023-04-24T10:57:31;100825.17;;;11.51;30.99
39954;BME280;25631;51.516;-0.470;2023-04-24T11:00:14;100829.54;;;11.53;30.32
39954;BME280;25631;51.516;-0.470;2023-04-24T11:02:53;100829.36;;;11.35;30.27
39954;BME280;25631;51.516;-0.470;2023-04-24T11:05:50;100826.26;;;11.52;30.54
39954;BME280;25631;51.516;-0.470;2023-04-24T11:08:31;100826.89;;;11.50;31.10
39954;BME280;25631;51.516;-0.470;2023-04-24T11:11:10;100822.05;;;11.55;30.58
39954;BME280;25631;51.516;-0.470;2023-04-24T11:14:03;100818.47;;;11.68;30.68
39954;BME280;25631;51.516;-0.470;2023-04-24T11:16:44;100820.23;;;11.88;30.33
39954;BME280;25631;51.516;-0.470;2023-04-24T11:19:25;100826.07;;;11.54;29.60
39954;BME280;25631;51.516;-0.470;2023-04-24T11:22:03;100825.22;;;11.96;29.70
39954;BME280;25631;51.516;-0.470;2023-04-24T11:24:50;100828.01;;;11.92;30.05
39954;BME280;25631;51.516;-0.470;2023-04-24T11:27:30;100831.79;;;11.60;29.23
39954;BME280;25631;51.516;-0.470;2023-04-24T11:30:09;100833.34;;;11.54;29.46
39954;BME280;25631;51.516;-0.470;2023-04-24T11:32:48;100834.59;;;11.72;29.43
39954;BME280;25631;51.516;-0.470;2023-04-24T11:35:26;100832.22;;;11.91;29.60
39954;BME280;25631;51.516;-0.470;2023-04-24T11:38:04;100830.23;;;11.76;29.74
39954;BME280;25631;51.516;-0.470;2023-04-24T11:40:41;100828.70;;;11.97;29.77
39954;BME280;25631;51.516;-0.470;2023-04-24T11:43:18;100833.65;;;12.10;29.83
39954;BME280;25631;51.516;-0.470;2023-04-24T11:45:59;100833.93;;;12.01;29.81
39954;BME280;25631;51.516;-0.470;2023-04-24T11:48:36;100838.10;;;12.04;29.76
39954;BME280;25631;51.516;-0.470;2023-04-24T11:51:12;100833.76;;;12.09;29.36
39954;BME280;25631;51.516;-0.470;2023-04-24T11:53:49;100831.26;;;12.47;29.65
39954;BME280;25631;51.516;-0.470;2023-04-24T11:56:25;100828.10;;;12.50;29.85
39954;BME280;25631;51.516;-0.470;2023-04-24T11:59:09;100823.13;;;12.09;29.32
39954;BME280;25631;51.516;-0.470;2023-04-24T12:01:46;100815.87;;;12.41;29.08
39954;BME280;25631;51.516;-0.470;2023-04-24T12:04:22;100814.37;;;12.17;28.81
39954;BME280;25631;51.516;-0.470;2023-04-24T12:06:59;100817.04;;;12.27;28.92
39954;BME280;25631;51.516;-0.470;2023-04-24T12:09:44;100812.34;;;12.42;28.80
39954;BME280;25631;51.516;-0.470;2023-04-24T12:12:23;100814.18;;;12.43;29.06
39954;BME280;25631;51.516;-0.470;2023-04-24T12:15:06;100816.74;;;12.46;28.78
39954;BME280;25631;51.516;-0.470;2023-04-24T12:17:43;100814.36;;;12.06;28.42
39954;BME280;25631;51.516;-0.470;2023-04-24T12:20:25;100814.61;;;12.32;29.02
39954;BME280;25631;51.516;-0.470;2023-04-24T12:23:01;100816.68;;;12.70;29.14
39954;BME280;25631;51.516;-0.470;2023-04-24T12:25:38;100818.86;;;12.56;28.59
39954;BME280;25631;51.516;-0.470;2023-04-24T12:28:15;100815.49;;;12.63;28.68
39954;BME280;25631;51.516;-0.470;2023-04-24T12:30:51;100814.62;;;12.97;28.71
39954;BME280;25631;51.516;-0.470;2023-04-24T12:33:33;100809.37;;;12.90;28.23
39954;BME280;25631;51.516;-0.470;2023-04-24T12:36:10;100805.31;;;13.16;28.34
39954;BME280;25631;51.516;-0.470;2023-04-24T12:38:52;100805.20;;;12.98;28.53
39954;BME280;25631;51.516;-0.470;2023-04-24T12:41:30;100799.45;;;13.18;28.59
39954;BME280;25631;51.516;-0.470;2023-04-24T12:44:10;100796.79;;;13.25;28.63
39954;BME280;25631;51.516;-0.470;2023-04-24T12:46:47;100799.37;;;13.14;28.75
39954;BME280;25631;51.516;-0.470;2023-04-24T12:49:24;100797.57;;;13.40;28.35
39954;BME280;25631;51.516;-0.470;2023-04-24T12:52:00;100798.37;;;13.11;27.71
39954;BME280;25631;51.516;-0.470;2023-04-24T12:54:37;100793.90;;;13.34;27.58
39954;BME280;25631;51.516;-0.470;2023-04-24T12:57:14;100785.81;;;13.46;27.66
39954;BME280;25631;51.516;-0.470;2023-04-24T12:59:51;100783.42;;;13.37;27.51
39954;BME280;25631;51.516;-0.470;2023-04-24T13:02:29;100785.11;;;13.63;27.62
39954;BME280;25631;51.516;-0.470;2023-04-24T13:05:07;100784.53;;;13.71;27.85
39954;BME280;25631;51.516;-0.470;2023-04-24T13:07:43;100781.39;;;13.81;27.59
39954;BME280;25631;51.516;-0.470;2023-04-24T13:10:20;100784.16;;;13.65;27.42
39954;BME280;25631;51.516;-0.470;2023-04-24T13:12:57;100779.37;;;13.97;27.75
39954;BME280;25631;51.516;-0.470;2023-04-24T13:15:33;100782.41;;;13.92;27.77
39954;BME280;25631;51.516;-0.470;2023-04-24T13:18:10;100779.98;;;14.11;26.89
39954;BME280;25631;51.516;-0.470;2023-04-24T13:20:46;100781.71;;;14.11;26.59
39954;BME280;25631;51.516;-0.470;2023-04-24T13:23:23;100775.43;;;14.20;26.65
39954;BME280;25631;51.516;-0.470;2023-04-24T13:25:59;100774.31;;;14.20;26.83
39954;BME280;25631;51.516;-0.470;2023-04-24T13:28:36;100772.85;;;14.51;27.00
39954;BME280;25631;51.516;-0.470;2023-04-24T13:31:12;100771.57;;;14.45;26.51
39954;BME280;25631;51.516;-0.470;2023-04-24T13:33:49;100774.68;;;14.30;26.46
39954;BME280;25631;51.516;-0.470;2023-04-24T13:36:25;100775.37;;;14.58;26.30
39954;BME280;25631;51.516;-0.470;2023-04-24T13:39:02;100774.94;;;14.79;25.91
39954;BME280;25631;51.516;-0.470;2023-04-24T13:41:39;100774.66;;;14.89;26.05